CET,Max TemperatureF,Mean TemperatureF,Min TemperatureF,Max Dew PointF,MeanDew PointF,Min DewpointF,Max Humidity, Mean Humidity, Min Humidity, Max Sea Level PressureIn, Mean Sea Level PressureIn, Min Sea Level PressureIn, Max VisibilityMiles, Mean VisibilityMiles, Min VisibilityMiles, Max Wind SpeedMPH, Mean Wind SpeedMPH, Max Gust SpeedMPH,PrecipitationIn, CloudCover, Events, WindDirDegrees
2014-1-1,39,36,33,36,34,32,100,93,81,30.21,30.17,30.12,5,4,2,12,8,,0.00,7,,115
2014-1-2,42,37,32,36,34,30,100,86,70,30.12,30.03,29.95,6,4,2,13,7,,0.00,6,,111
2014-1-3,39,32,26,39,34,27,100,99,93,30.12,30.09,30.01,3,1,0,9,3,,0.00,6,Fog,77
2014-1-4,44,40,35,43,40,36,100,97,87,30.18,30.08,29.92,4,2,0,12,5,,0.00,7,Fog-Rain,85
2014-1-5,50,46,41,46,43,39,100,89,76,29.95,29.86,29.80,6,5,4,13,8,,0.00,7,Rain,90
2014-1-6,53,42,32,48,42,32,100,97,77,30.18,30.09,29.98,6,3,0,8,5,,0.00,6,Fog-Rain,289
2014-1-7,44,37,30,45,40,30,100,100,93,30.27,30.22,30.15,1,0,0,8,5,,0.00,7,Fog,103
2014-1-8,42,40,39,43,40,39,100,100,100,30.30,30.27,30.24,3,1,0,9,6,,0.00,8,Fog,161
2014-1-9,39,38,37,39,38,37,100,100,100,30.27,30.16,30.01,1,1,0,8,5,,0.00,8,Fog,121
2014-1-10,48,40,33,45,37,32,100,91,66,30.15,30.03,29.89,6,2,0,23,8,,0.00,6,Fog,222
2014-1-11,44,36,28,43,36,27,100,91,61,30.18,30.13,30.06,6,6,3,8,3,,0.00,6,Rain,172
2014-1-12,46,36,26,46,31,25,100,74,49,30.21,30.15,30.04,6,5,2,31,12,,0.00,3,Fog,275
2014-1-13,46,32,19,36,28,18,100,84,61,30.18,30.08,30.01,6,6,6,8,3,,0.00,6,,114
2014-1-14,46,42,37,34,32,30,81,72,53,30.01,29.90,29.80,6,6,5,15,8,,0.00,7,Rain,84
2014-1-15,42,36,28,41,36,27,100,92,81,29.95,29.86,29.80,6,5,2,20,7,,0.00,7,Rain,304
2014-1-16,42,32,23,36,31,23,100,93,76,30.01,29.97,29.89,6,4,1,10,4,,0.00,6,Fog,116
2014-1-17,50,42,33,41,37,32,100,79,58,29.89,29.84,29.80,6,5,4,14,8,,0.00,5,Rain,152
2014-1-18,50,44,37,46,43,37,100,92,81,29.89,29.86,29.83,6,6,4,9,6,,0.00,6,Rain,99
2014-1-19,48,44,39,46,44,39,100,97,87,29.86,29.79,29.71,6,4,1,14,6,,0.00,5,Fog-Rain,56
2014-1-20,50,47,44,48,46,43,100,94,87,29.68,29.63,29.59,6,4,0,14,9,,0.00,6,Fog-Rain,97
2014-1-21,46,42,39,46,43,39,100,100,100,29.74,29.66,29.62,6,3,0,17,6,,0.00,6,Fog-Rain,350
2014-1-22,39,36,33,39,35,30,100,94,81,29.98,29.83,29.74,6,6,6,18,14,,0.00,7,Rain,292
2014-1-23,35,32,30,34,29,25,100,86,75,30.09,30.05,29.98,6,5,3,9,5,,0.00,6,,67
2014-1-24,32,29,26,27,23,19,86,76,64,30.09,29.98,29.89,6,6,5,12,9,,0.00,6,Snow,55
2014-1-25,32,26,21,27,21,16,100,74,64,29.92,29.88,29.83,6,5,2,12,8,,0.00,7,Snow,322
2014-1-26,26,19,12,21,18,12,100,89,80,29.92,29.90,29.86,5,4,1,7,3,,0.00,6,Snow,92
2014-1-27,26,17,8,23,17,9,100,92,80,29.89,29.76,29.68,3,2,1,6,2,43,0.00,4,,128
2014-1-28,30,26,23,27,24,21,100,85,69,29.68,29.66,29.62,3,2,1,9,4,,0.00,7,Snow,101
2014-1-29,30,28,26,30,25,21,100,90,80,30.01,29.81,29.68,4,2,1,12,7,,0.00,7,Snow,97
2014-1-30,33,27,21,28,25,19,93,85,75,30.21,30.13,30.01,4,3,1,16,10,,0.00,7,Fog,90
2014-1-31,32,29,26,27,21,19,86,74,64,30.33,30.25,30.21,6,6,4,22,15,,0.00,4,Rain,118